Time;durP1;ratioP1;P1;durP2;ratioP2;P2;SDS_P1;SDS_P2;PMS_P1;PMS_P2;Temp;Humidity;BMP_temperature;BMP_pressure;BME280_temperature;BME280_humidity;BME280_pressure;Samples;Min_cycle;Max_cycle;Signal;HPM_P1;HPM_P2
2022/10/04 00:00:12;;;;;;;19.58;9.63;;;13.90;99.90;;;;;;5059141;28;20055;-72
2022/10/04 00:02:44;;;;;;;18.42;8.20;;;13.90;99.90;;;;;;5062243;28;20394;-72
2022/10/04 00:05:16;;;;;;;15.55;7.53;;;13.90;99.90;;;;;;5063335;28;20033;-72
2022/10/04 00:08:24;;;;;;;18.55;9.73;;;13.80;99.90;;;;;;5058347;28;20029;-72
2022/10/04 00:11:01;;;;;;;22.17;9.32;;;13.70;99.90;;;;;;5064034;28;20117;-72
2022/10/04 00:13:28;;;;;;;21.30;8.80;;;13.80;99.90;;;;;;5064548;28;20469;-72
2022/10/04 00:15:54;;;;;;;23.42;10.77;;;13.70;99.90;;;;;;5063342;28;20035;-73
2022/10/04 00:18:31;;;;;;;15.63;9.75;;;13.70;99.90;;;;;;5064200;28;20037;-72
2022/10/04 00:21:02;;;;;;;21.52;9.23;;;13.70;99.90;;;;;;5066683;28;20433;-72
2022/10/04 00:23:41;;;;;;;19.40;9.40;;;13.70;99.90;;;;;;5059973;28;20044;-72
2022/10/04 00:26:32;;;;;;;22.55;9.80;;;13.70;99.90;;;;;;5062046;28;20028;-72
2022/10/04 00:29:18;;;;;;;18.13;9.20;;;13.80;99.90;;;;;;5065375;28;20085;-72
2022/10/04 00:32:11;;;;;;;18.02;9.73;;;13.70;99.90;;;;;;5059273;28;20039;-72
2022/10/04 00:34:51;;;;;;;18.40;9.65;;;13.80;99.90;;;;;;5060229;28;20025;-72
2022/10/04 00:37:19;;;;;;;23.13;10.90;;;13.80;99.90;;;;;;5055820;28;20040;-72
2022/10/04 00:40:00;;;;;;;27.05;11.15;;;13.80;99.90;;;;;;5062167;28;20171;-72
2022/10/04 00:42:35;;;;;;;28.55;11.55;;;13.80;99.90;;;;;;5062657;28;20116;-72
2022/10/04 00:45:26;;;;;;;19.92;10.57;;;13.80;99.90;;;;;;5063666;28;20199;-72
2022/10/04 00:48:29;;;;;;;18.15;10.05;;;13.70;99.90;;;;;;5062507;28;20025;-72
2022/10/04 00:51:10;;;;;;;16.73;9.37;;;13.70;99.90;;;;;;5061789;28;20036;-72
2022/10/04 00:53:51;;;;;;;22.80;10.57;;;13.60;99.90;;;;;;5062049;28;20527;-72
2022/10/04 00:56:36;;;;;;;14.60;8.32;;;13.60;99.90;;;;;;5061530;28;20032;-72
2022/10/04 00:59:04;;;;;;;22.60;8.65;;;13.60;99.90;;;;;;5057352;28;20052;-72
2022/10/04 01:01:33;;;;;;;17.17;8.52;;;13.60;99.90;;;;;;5060814;28;20381;-72
2022/10/04 01:04:02;;;;;;;21.33;10.07;;;13.60;99.90;;;;;;5064819;28;20055;-72
2022/10/04 01:06:29;;;;;;;20.02;10.18;;;13.60;99.90;;;;;;5061660;28;20060;-72
2022/10/04 01:09:04;;;;;;;16.52;9.77;;;13.60;99.90;;;;;;5063107;28;20464;-71
2022/10/04 01:11:36;;;;;;;15.63;10.10;;;13.60;99.90;;;;;;5057313;28;20376;-72
2022/10/04 01:14:12;;;;;;;18.40;11.45;;;13.50;99.90;;;;;;5067565;28;20021;-72
2022/10/04 01:16:38;;;;;;;19.00;12.50;;;13.50;99.90;;;;;;5064694;28;20497;-72
2022/10/04 01:19:23;;;;;;;19.90;13.15;;;13.50;99.90;;;;;;5065170;28;20366;-72
2022/10/04 01:22:13;;;;;;;23.10;14.20;;;13.50;99.90;;;;;;5067925;28;20021;-72
2022/10/04 01:24:41;;;;;;;19.15;10.93;;;13.40;99.90;;;;;;5070423;28;20105;-72
2022/10/04 01:27:34;;;;;;;20.35;11.60;;;13.40;99.90;;;;;;5063157;28;20469;-72
2022/10/04 01:30:01;;;;;;;19.38;12.60;;;13.40;99.90;;;;;;5060394;28;20362;-72
2022/10/04 01:32:29;;;;;;;23.73;12.07;;;13.40;99.90;;;;;;5065959;28;20017;-71
2022/10/04 01:34:56;;;;;;;21.83;12.23;;;13.40;99.90;;;;;;5066327;28;20029;-72
2022/10/04 01:37:22;;;;;;;19.00;12.80;;;13.40;99.90;;;;;;5060778;28;21033;-72
2022/10/04 01:39:48;;;;;;;26.67;13.77;;;13.40;99.90;;;;;;5066511;28;20052;-72
2022/10/04 01:42:19;;;;;;;22.88;14.32;;;13.30;99.90;;;;;;5065087;28;20473;-72
2022/10/04 01:44:54;;;;;;;20.08;11.65;;;13.30;99.90;;;;;;5068231;28;20405;-72
2022/10/04 01:47:49;;;;;;;22.33;14.00;;;13.30;99.90;;;;;;5061062;28;20055;-71
2022/10/04 01:50:19;;;;;;;19.70;12.27;;;13.20;99.90;;;;;;5058032;28;20687;-69
2022/10/04 01:52:49;;;;;;;23.30;12.13;;;13.20;99.90;;;;;;5064348;28;20063;-70
2022/10/04 01:55:22;;;;;;;17.98;12.55;;;13.10;99.90;;;;;;5067383;28;20025;-70
2022/10/04 01:57:52;;;;;;;26.90;14.07;;;13.00;99.90;;;;;;5060991;28;20039;-69
2022/10/04 02:00:20;;;;;;;18.02;12.40;;;13.00;99.90;;;;;;5067129;28;20033;-70
2022/10/04 02:02:57;;;;;;;17.50;11.80;;;13.00;99.90;;;;;;5067296;28;20094;-70
2022/10/04 02:05:30;;;;;;;20.83;12.13;;;13.00;99.90;;;;;;5069781;28;20049;-69
2022/10/04 02:08:00;;;;;;;19.08;11.05;;;13.10;99.90;;;;;;5065402;28;20037;-70
2022/10/04 02:10:26;;;;;;;21.50;11.80;;;13.10;99.90;;;;;;5061962;28;20199;-69
2022/10/04 02:12:53;;;;;;;19.20;11.68;;;13.20;99.90;;;;;;5059809;28;20100;-70
2022/10/04 02:15:21;;;;;;;21.67;11.23;;;13.20;99.90;;;;;;5064428;28;20025;-70
2022/10/04 02:17:48;;;;;;;19.58;10.85;;;13.10;99.90;;;;;;5069668;28;20090;-69
2022/10/04 02:20:20;;;;;;;18.48;10.35;;;13.20;99.90;;;;;;5064864;28;20031;-69
2022/10/04 02:22:49;;;;;;;19.42;10.27;;;13.10;99.90;;;;;;5057109;28;20067;-70
2022/10/04 02:25:18;;;;;;;14.98;10.13;;;13.20;99.90;;;;;;5065693;28;20079;-70
2022/10/04 02:27:44;;;;;;;20.60;10.43;;;13.20;99.90;;;;;;5063471;28;20054;-69
2022/10/04 02:30:12;;;;;;;17.17;9.25;;;13.10;99.90;;;;;;5067084;28;20082;-70
2022/10/04 02:35:31;;;;;;;17.55;9.88;;;13.10;99.90;;;;;;5064804;28;20087;-69
2022/10/04 02:38:16;;;;;;;19.27;9.10;;;13.00;99.90;;;;;;5060924;28;20494;-71
2022/10/04 02:41:08;;;;;;;14.90;9.20;;;13.00;99.90;;;;;;5067791;28;20028;-68
2022/10/04 02:43:46;;;;;;;18.85;10.20;;;13.00;99.90;;;;;;5067544;28;20119;-69
2022/10/04 02:46:24;;;;;;;18.05;9.70;;;12.90;99.90;;;;;;5060882;28;20115;-70
2022/10/04 02:49:00;;;;;;;15.82;9.43;;;12.90;99.90;;;;;;5065825;28;20042;-70
2022/10/04 02:51:32;;;;;;;16.65;8.68;;;12.90;99.90;;;;;;5060575;28;20021;-70
2022/10/04 02:54:09;;;;;;;21.58;9.73;;;12.80;99.90;;;;;;5065458;28;20036;-71
2022/10/04 02:56:36;;;;;;;19.75;9.93;;;12.80;99.90;;;;;;5062628;28;20462;-70
2022/10/04 02:59:04;;;;;;;15.13;9.43;;;12.80;99.90;;;;;;5065776;28;20052;-70
2022/10/04 03:01:40;;;;;;;15.85;9.13;;;12.80;99.90;;;;;;5067305;28;20373;-70
2022/10/04 03:04:05;;;;;;;12.43;9.82;;;12.70;99.90;;;;;;5059166;28;20073;-70
2022/10/04 03:06:32;;;;;;;16.98;9.52;;;12.70;99.90;;;;;;5071793;28;20029;-70
2022/10/04 03:09:01;;;;;;;18.67;9.57;;;12.70;99.90;;;;;;5063697;28;20031;-70
2022/10/04 03:11:32;;;;;;;16.60;9.25;;;12.70;99.90;;;;;;5062797;28;20032;-70
2022/10/04 03:14:00;;;;;;;16.90;10.07;;;12.70;99.90;;;;;;5061988;28;20094;-70
2022/10/04 03:16:26;;;;;;;14.63;9.13;;;12.70;99.90;;;;;;5066059;28;20103;-70
2022/10/04 03:18:55;;;;;;;17.25;9.32;;;12.70;99.90;;;;;;5063857;28;20099;-70
2022/10/04 03:21:22;;;;;;;16.45;9.63;;;12.70;99.90;;;;;;5060709;28;20047;-70
2022/10/04 03:23:50;;;;;;;19.25;10.73;;;12.70;99.90;;;;;;5063144;28;20024;-70
2022/10/04 03:26:51;;;;;;;15.40;9.75;;;12.60;99.90;;;;;;5057106;28;20029;-70
2022/10/04 03:29:18;;;;;;;16.52;9.38;;;12.60;99.90;;;;;;5065421;28;20048;-70
2022/10/04 03:31:46;;;;;;;17.08;9.82;;;12.60;99.90;;;;;;5059917;28;20485;-70
2022/10/04 03:34:19;;;;;;;22.40;9.50;;;12.60;99.90;;;;;;5062275;28;20543;-70
2022/10/04 03:36:48;;;;;;;19.20;10.40;;;12.60;99.90;;;;;;5063477;28;20036;-71
2022/10/04 03:39:29;;;;;;;19.60;9.13;;;12.60;99.90;;;;;;5058893;28;20033;-70
2022/10/04 03:41:56;;;;;;;15.13;9.30;;;12.60;99.90;;;;;;5066329;28;20028;-70
2022/10/04 03:44:22;;;;;;;15.40;9.40;;;12.50;99.90;;;;;;5063841;28;20028;-70
2022/10/04 03:46:48;;;;;;;15.05;8.77;;;12.50;99.90;;;;;;5056089;28;20051;-70
2022/10/04 03:49:22;;;;;;;12.27;8.05;;;12.50;99.90;;;;;;5061190;28;20103;-70
2022/10/04 03:51:49;;;;;;;16.65;8.70;;;12.50;99.90;;;;;;5057417;28;20087;-70
2022/10/04 03:54:21;;;;;;;17.23;8.68;;;12.60;99.90;;;;;;5063319;28;20020;-70
2022/10/04 03:56:49;;;;;;;18.50;7.75;;;12.50;99.90;;;;;;5061069;28;20389;-70
2022/10/04 03:59:17;;;;;;;20.50;8.98;;;12.50;99.90;;;;;;5063654;28;20029;-70
2022/10/04 04:02:14;;;;;;;18.23;8.52;;;12.50;99.90;;;;;;5060903;28;20029;-71
2022/10/04 04:05:05;;;;;;;14.75;8.40;;;12.40;99.90;;;;;;5070034;28;20083;-71
2022/10/04 04:07:37;;;;;;;15.40;8.80;;;12.40;99.90;;;;;;5065478;28;20473;-71
2022/10/04 04:10:06;;;;;;;17.58;9.07;;;12.40;99.90;;;;;;5066789;28;20036;-70
2022/10/04 04:12:55;;;;;;;14.38;8.30;;;12.40;99.90;;;;;;5061353;28;20028;-70
2022/10/04 04:15:22;;;;;;;16.45;8.60;;;12.30;99.90;;;;;;5063604;28;20031;-71
2022/10/04 04:17:53;;;;;;;18.67;8.85;;;12.30;99.90;;;;;;5059883;28;20041;-71
2022/10/04 04:20:29;;;;;;;17.80;8.65;;;12.30;99.90;;;;;;5061632;28;20052;-71
2022/10/04 04:23:22;;;;;;;13.45;9.00;;;12.30;99.90;;;;;;5066201;28;20029;-71
2022/10/04 04:25:53;;;;;;;16.13;9.23;;;12.30;99.90;;;;;;5065714;28;20381;-70
2022/10/04 04:28:49;;;;;;;18.25;9.60;;;12.30;99.90;;;;;;5061958;28;20389;-71
2022/10/04 04:31:27;;;;;;;16.70;8.48;;;12.30;99.90;;;;;;5061519;28;20032;-71
2022/10/04 04:33:59;;;;;;;16.83;8.60;;;12.30;99.90;;;;;;5060575;28;20067;-70
2022/10/04 04:36:27;;;;;;;13.20;7.40;;;12.20;99.90;;;;;;5057827;28;20032;-71
2022/10/04 04:41:39;;;;;;;14.05;8.07;;;12.20;99.90;;;;;;5062240;28;20119;-70
2022/10/04 04:44:16;;;;;;;17.02;8.88;;;12.20;99.90;;;;;;5058244;28;20013;-70
2022/10/04 04:46:44;;;;;;;16.70;7.75;;;12.20;99.90;;;;;;5056791;28;20036;-70
2022/10/04 04:49:10;;;;;;;14.48;8.15;;;12.10;99.90;;;;;;5063185;28;20056;-71
2022/10/04 04:51:36;;;;;;;16.67;7.88;;;12.10;99.90;;;;;;5057984;28;20542;-71
2022/10/04 04:54:05;;;;;;;16.10;7.05;;;12.20;99.90;;;;;;5061629;28;20021;-70
2022/10/04 04:56:31;;;;;;;11.20;6.10;;;12.20;99.90;;;;;;5062440;28;20020;-71
2022/10/04 04:59:01;;;;;;;11.40;7.20;;;12.20;99.90;;;;;;5057602;28;20035;-70
2022/10/04 05:01:43;;;;;;;16.23;7.10;;;12.20;99.90;;;;;;5060384;28;20256;-71
2022/10/04 05:04:11;;;;;;;12.10;6.63;;;12.20;99.90;;;;;;5066042;28;20075;-71
2022/10/04 05:06:57;;;;;;;12.27;6.97;;;12.20;99.90;;;;;;5059105;28;20275;-71
2022/10/04 05:09:26;;;;;;;10.75;6.05;;;12.10;99.90;;;;;;5066963;28;20060;-71
2022/10/04 05:11:56;;;;;;;11.57;6.72;;;12.10;99.90;;;;;;5066868;28;20488;-71
2022/10/04 05:14:22;;;;;;;15.98;6.95;;;12.10;99.90;;;;;;5059187;28;20036;-71
2022/10/04 05:16:52;;;;;;;12.80;6.63;;;12.10;99.90;;;;;;5064952;28;20034;-70
2022/10/04 05:19:23;;;;;;;12.95;6.35;;;12.10;99.90;;;;;;5056804;28;20390;-71
2022/10/04 05:21:51;;;;;;;11.35;7.53;;;12.00;99.90;;;;;;5067148;28;20024;-71
2022/10/04 05:24:22;;;;;;;16.58;6.82;;;12.00;99.90;;;;;;5067923;28;20021;-71
2022/10/04 05:26:51;;;;;;;15.18;6.95;;;12.00;99.90;;;;;;5063729;28;20033;-71
2022/10/04 05:29:22;;;;;;;18.27;8.00;;;12.00;99.90;;;;;;5064110;28;20021;-71
2022/10/04 05:31:54;;;;;;;12.05;7.03;;;12.00;99.90;;;;;;5067084;28;20104;-71
2022/10/04 05:34:25;;;;;;;;;;;11.90;99.90;;;;;;5063337;28;20020;-70
2022/10/04 05:36:54;;;;;;;14.60;7.05;;;12.00;99.90;;;;;;5066696;28;19923;-70
2022/10/04 05:39:45;;;;;;;15.50;8.00;;;12.00;99.90;;;;;;5060368;28;20032;-70
2022/10/04 05:42:15;;;;;;;18.92;7.85;;;12.00;99.90;;;;;;5064395;28;20021;-70
2022/10/04 05:44:52;;;;;;;13.10;7.18;;;12.00;99.90;;;;;;5066284;28;20033;-70
2022/10/04 05:47:22;;;;;;;13.02;7.13;;;12.00;99.90;;;;;;5068494;28;20025;-71
2022/10/04 05:49:51;;;;;;;24.27;16.95;;;11.90;99.90;;;;;;5066687;28;20036;-70
2022/10/04 05:52:37;;;;;;;43.92;29.02;;;11.90;99.90;;;;;;5059652;28;20028;-70
2022/10/04 05:55:14;;;;;;;101.18;57.85;;;11.90;99.90;;;;;;5064109;28;20082;-71
2022/10/04 05:57:43;;;;;;;129.68;66.38;;;11.90;99.90;;;;;;5063799;28;20047;-70
2022/10/04 06:00:16;;;;;;;112.35;61.05;;;11.90;99.90;;;;;;5064909;28;20096;-70
2022/10/04 06:03:00;;;;;;;82.47;44.80;;;11.90;99.90;;;;;;5063250;28;20029;-70
2022/10/04 06:05:49;;;;;;;73.10;37.05;;;11.90;99.90;;;;;;5057315;28;20029;-70
2022/10/04 06:08:18;;;;;;;72.13;37.90;;;11.90;99.90;;;;;;5056207;28;20383;-70
2022/10/04 06:11:08;;;;;;;30.67;15.25;;;11.90;99.90;;;;;;5063561;28;20044;-70
2022/10/04 06:14:10;;;;;;;37.00;18.65;;;11.90;99.90;;;;;;5062332;28;20032;-69
2022/10/04 06:17:08;;;;;;;25.58;12.88;;;11.90;99.90;;;;;;5064097;28;20374;-71
2022/10/04 06:19:45;;;;;;;46.17;25.60;;;12.00;99.90;;;;;;5042689;28;20071;-71
2022/10/04 06:22:19;;;;;;;36.03;19.77;;;11.90;99.90;;;;;;5058881;28;20017;-71
2022/10/04 06:25:08;;;;;;;26.15;14.65;;;12.00;99.90;;;;;;5060200;28;20029;-71
2022/10/04 06:27:54;;;;;;;24.60;11.88;;;12.00;99.90;;;;;;5053744;28;20025;-71
2022/10/04 06:30:20;;;;;;;22.00;13.00;;;12.00;99.90;;;;;;5052332;28;20076;-71
2022/10/04 06:32:54;;;;;;;21.20;12.27;;;12.00;99.90;;;;;;5054552;28;20035;-71
2022/10/04 06:35:57;;;;;;;21.23;12.90;;;12.10;99.90;;;;;;5059259;28;20099;-71
2022/10/04 06:38:34;;;;;;;19.27;9.25;;;12.10;99.90;;;;;;5062523;28;20040;-71
2022/10/04 06:41:11;;;;;;;19.77;8.73;;;12.00;99.90;;;;;;5070591;28;20075;-71
2022/10/04 06:44:18;;;;;;;23.40;7.88;;;11.90;99.90;;;;;;5071436;28;20025;-71
2022/10/04 06:47:16;;;;;;;16.90;10.00;;;12.00;99.90;;;;;;5055090;28;20500;-72
2022/10/04 06:49:53;;;;;;;33.08;18.85;;;12.10;99.90;;;;;;5052740;28;20021;-72
2022/10/04 06:52:27;;;;;;;30.55;18.13;;;12.10;99.90;;;;;;5052981;28;20515;-72
2022/10/04 06:54:53;;;;;;;26.30;14.63;;;12.10;99.90;;;;;;5056106;28;20456;-72
2022/10/04 06:57:30;;;;;;;22.65;14.65;;;12.10;99.90;;;;;;5071299;28;20082;-72
2022/10/04 07:00:12;;;;;;;18.58;11.20;;;12.10;99.90;;;;;;5072505;28;20055;-71
2022/10/04 07:02:43;;;;;;;21.48;11.10;;;12.10;99.90;;;;;;5072349;28;20259;-72
2022/10/04 07:05:29;;;;;;;20.23;12.43;;;12.20;99.90;;;;;;5073497;28;20074;-72
2022/10/04 07:08:07;;;;;;;19.20;11.52;;;12.30;99.90;;;;;;5073895;28;20024;-72
2022/10/04 07:10:55;;;;;;;20.58;11.80;;;12.30;99.90;;;;;;5070212;28;20013;-71
2022/10/04 07:13:26;;;;;;;22.42;12.15;;;12.30;99.90;;;;;;5059472;28;20454;-72
2022/10/04 07:16:01;;;;;;;22.02;12.52;;;12.30;99.90;;;;;;5052755;28;20035;-72
2022/10/04 07:18:54;;;;;;;23.20;12.07;;;12.30;99.90;;;;;;5061878;28;20040;-72
2022/10/04 07:21:25;;;;;;;21.17;11.70;;;12.30;99.90;;;;;;5070004;28;20024;-72
2022/10/04 07:23:52;;;;;;;21.67;11.02;;;12.30;99.90;;;;;;5062148;28;20023;-72
2022/10/04 07:26:48;;;;;;;20.73;10.10;;;12.40;99.90;;;;;;5059582;28;20025;-72
2022/10/04 07:29:29;;;;;;;21.73;10.02;;;12.30;99.90;;;;;;5059132;28;20116;-72
2022/10/04 07:32:07;;;;;;;20.98;9.27;;;12.30;99.90;;;;;;5053257;28;20082;-72
2022/10/04 07:34:42;;;;;;;21.00;9.98;;;12.30;99.90;;;;;;5053720;28;20118;-72
2022/10/04 07:37:11;;;;;;;18.98;10.13;;;12.30;99.90;;;;;;5062718;28;20028;-71
2022/10/04 07:39:59;;;;;;;22.60;10.02;;;12.30;99.90;;;;;;5060357;28;20037;-71
2022/10/04 07:42:34;;;;;;;15.82;9.55;;;12.30;99.90;;;;;;5053456;28;20511;-71
2022/10/04 07:45:24;;;;;;;18.95;9.57;;;12.30;99.90;;;;;;5062999;28;20029;-70
2022/10/04 07:47:50;;;;;;;16.02;9.23;;;12.30;99.90;;;;;;5060576;28;20021;-70
2022/10/04 07:50:30;;;;;;;16.38;10.30;;;12.30;99.90;;;;;;5058782;28;20135;-70
2022/10/04 07:53:15;;;;;;;18.65;10.02;;;12.40;99.90;;;;;;5058761;28;20021;-70
2022/10/04 07:55:55;;;;;;;20.58;9.02;;;12.50;99.90;;;;;;5060424;28;20021;-70
2022/10/04 07:58:35;;;;;;;16.13;9.23;;;12.50;99.90;;;;;;5063256;28;20459;-70
2022/10/04 08:01:12;;;;;;;17.85;9.02;;;12.60;99.90;;;;;;5061979;28;20023;-70
2022/10/04 08:04:01;;;;;;;17.77;9.23;;;12.70;99.90;;;;;;5037967;28;20124;-70
2022/10/04 08:06:35;;;;;;;13.88;8.30;;;12.70;99.90;;;;;;5062134;28;20126;-71
2022/10/04 08:09:48;;;;;;;14.65;8.13;;;12.80;99.90;;;;;;5062759;28;20381;-71
2022/10/04 08:12:50;;;;;;;15.50;7.70;;;12.90;99.90;;;;;;5058098;28;20028;-70
2022/10/04 08:15:33;;;;;;;15.50;7.68;;;13.00;99.90;;;;;;5074566;28;20127;-70
2022/10/04 08:18:01;;;;;;;;;;;13.10;99.90;;;;;;5075201;28;20076;-70
2022/10/04 08:20:36;;;;;;;13.10;7.75;;;13.10;99.90;;;;;;5081031;28;19909;-70
2022/10/04 08:23:07;;;;;;;18.27;7.78;;;13.20;99.90;;;;;;5080600;28;20392;-70
2022/10/04 08:25:36;;;;;;;16.03;8.60;;;13.20;99.90;;;;;;5074908;28;20058;-70
2022/10/04 08:31:26;;;;;;;15.40;7.80;;;13.30;99.90;;;;;;5059880;28;20087;-71
2022/10/04 08:34:10;;;;;;;12.15;7.03;;;13.50;99.90;;;;;;5061131;28;20021;-71
2022/10/04 08:37:08;;;;;;;9.95;6.53;;;13.60;99.90;;;;;;5075859;28;20029;-71
2022/10/04 08:39:34;;;;;;;17.48;8.00;;;13.60;99.90;;;;;;5083170;28;20028;-70
2022/10/04 08:42:48;;;;;;;13.90;7.35;;;13.80;99.90;;;;;;5070854;28;20105;-71
2022/10/04 08:45:47;;;;;;;10.80;7.13;;;13.90;99.90;;;;;;5077936;28;20028;-71
2022/10/04 08:48:39;;;;;;;14.95;7.50;;;14.00;99.90;;;;;;5069405;28;20148;-71
2022/10/04 08:51:20;;;;;;;14.00;7.05;;;14.10;99.90;;;;;;5081854;28;20034;-71
2022/10/04 08:54:23;;;;;;;11.50;6.65;;;14.20;99.90;;;;;;5074117;28;20096;-71
2022/10/04 08:57:09;;;;;;;16.15;7.15;;;14.20;99.90;;;;;;5066999;28;20021;-70
2022/10/04 09:00:12;;;;;;;11.48;6.65;;;14.30;99.90;;;;;;5071312;28;20036;-71
2022/10/04 09:03:00;;;;;;;18.08;6.85;;;14.40;99.90;;;;;;5052757;28;20040;-70
2022/10/04 09:05:44;;;;;;;13.60;5.85;;;14.50;99.90;;;;;;5070976;28;20029;-71
2022/10/04 09:08:22;;;;;;;11.57;6.25;;;14.50;99.90;;;;;;5070736;28;20032;-70
2022/10/04 09:11:12;;;;;;;14.07;6.20;;;14.60;99.90;;;;;;5081816;28;20016;-71
2022/10/04 09:14:30;;;;;;;11.90;6.15;;;14.60;99.90;;;;;;5087024;28;20081;-71
2022/10/04 09:17:15;;;;;;;14.50;5.47;;;14.70;99.90;;;;;;5090158;28;20174;-70
2022/10/04 09:19:54;;;;;;;9.93;6.45;;;15.00;99.90;;;;;;5065460;28;20043;-71
2022/10/04 09:22:50;;;;;;;10.65;5.82;;;15.10;99.90;;;;;;5062375;28;20036;-70
2022/10/04 09:25:21;;;;;;;15.05;6.80;;;15.20;99.90;;;;;;5068680;28;20055;-69
2022/10/04 09:28:02;;;;;;;9.82;5.55;;;15.30;99.90;;;;;;5073067;28;20108;-70
2022/10/04 09:30:59;;;;;;;14.40;6.05;;;15.50;99.90;;;;;;5060918;28;20025;-70
2022/10/04 09:33:50;;;;;;;13.40;5.50;;;15.70;99.90;;;;;;5059777;28;20028;-71
2022/10/04 09:36:25;;;;;;;12.82;5.88;;;15.80;99.90;;;;;;5061971;28;20033;-71
2022/10/04 09:39:08;;;;;;;10.30;5.45;;;15.90;99.90;;;;;;5062766;28;20107;-71
2022/10/04 09:41:51;;;;;;;12.48;4.97;;;16.00;99.90;;;;;;5054971;28;20027;-70
2022/10/04 09:44:44;;;;;;;11.57;6.25;;;16.10;99.90;;;;;;5065157;28;20036;-71
2022/10/04 09:47:30;;;;;;;10.52;6.30;;;16.30;99.90;;;;;;5052451;28;20036;-71
2022/10/04 09:50:02;;;;;;;12.45;5.70;;;16.40;99.90;;;;;;5071370;28;20031;-70
2022/10/04 09:52:45;;;;;;;11.25;5.25;;;16.50;99.90;;;;;;5056603;28;20086;-70
2022/10/04 09:55:30;;;;;;;11.65;5.07;;;16.60;99.90;;;;;;5061179;28;20111;-70
2022/10/04 09:58:28;;;;;;;9.20;5.00;;;16.70;99.90;;;;;;5068545;28;20040;-70
2022/10/04 10:01:15;;;;;;;8.07;4.65;;;16.90;99.90;;;;;;5063275;28;20624;-69
2022/10/04 10:04:05;;;;;;;12.82;5.40;;;17.10;99.90;;;;;;5065189;28;20426;-70
2022/10/04 10:07:08;;;;;;;14.65;5.50;;;17.20;99.90;;;;;;5062013;28;20165;-72
2022/10/04 10:16:21;;;;;;;10.38;4.53;;;17.50;99.90;;;;;;5066795;28;20093;-70
2022/10/04 10:19:04;;;;;;;8.85;4.60;;;17.60;99.90;;;;;;5065480;28;20522;-70
2022/10/04 10:21:52;;;;;;;;;;;17.80;99.90;;;;;;5068624;28;20040;-70
2022/10/04 10:24:45;;;;;;;10.95;5.00;;;17.80;99.90;;;;;;5063636;28;19974;-70
2022/10/04 10:27:41;;;;;;;6.97;4.67;;;17.70;99.90;;;;;;5079109;28;20040;-70
2022/10/04 10:30:21;;;;;;;10.10;5.15;;;17.70;99.90;;;;;;5068413;28;20120;-70
2022/10/04 10:33:05;;;;;;;8.10;4.70;;;17.90;99.90;;;;;;5062507;28;20021;-70
2022/10/04 10:36:02;;;;;;;10.77;4.40;;;18.10;99.90;;;;;;5061890;28;20531;-70
2022/10/04 10:38:40;;;;;;;6.22;4.57;;;18.20;99.90;;;;;;5063594;28;20045;-70
2022/10/04 10:41:23;;;;;;;10.60;4.90;;;18.50;99.90;;;;;;5057139;28;20473;-70
2022/10/04 10:44:18;;;;;;;12.82;4.88;;;18.50;99.90;;;;;;5067467;28;20028;-70
2022/10/04 10:46:58;;;;;;;7.10;3.90;;;18.60;99.90;;;;;;5067874;28;20025;-70
2022/10/04 10:49:43;;;;;;;10.65;4.78;;;18.60;99.90;;;;;;5063543;28;20031;-70
2022/10/04 10:52:36;;;;;;;10.23;5.03;;;18.70;99.90;;;;;;5068253;28;20024;-70
2022/10/04 10:55:28;;;;;;;13.05;4.75;;;19.00;99.90;;;;;;5070152;28;20066;-70
2022/10/04 10:58:25;;;;;;;11.75;4.72;;;19.10;99.90;;;;;;5064498;28;20082;-70
2022/10/04 11:01:29;;;;;;;7.20;4.50;;;19.10;99.90;;;;;;5065337;28;20031;-69
2022/10/04 11:04:34;;;;;;;10.05;4.57;;;19.10;99.90;;;;;;5065670;28;20059;-69
2022/10/04 11:07:21;;;;;;;11.60;4.70;;;19.10;99.90;;;;;;5063415;28;20082;-70
2022/10/04 11:10:21;;;;;;;8.93;4.20;;;19.30;99.90;;;;;;5065168;28;20052;-70
2022/10/04 11:13:09;;;;;;;10.05;4.10;;;19.20;99.90;;;;;;5065844;28;20124;-71
2022/10/04 11:15:37;;;;;;;12.55;4.68;;;19.40;99.90;;;;;;5064102;28;20036;-70
2022/10/04 11:18:21;;;;;;;11.52;4.28;;;19.40;99.90;;;;;;5067400;28;20493;-70
2022/10/04 11:21:25;;;;;;;8.65;3.92;;;19.50;99.90;;;;;;5069798;28;20107;-71
2022/10/04 11:24:25;;;;;;;12.10;4.25;;;19.60;99.90;;;;;;5068662;28;20566;-70
2022/10/04 11:26:56;;;;;;;8.73;4.30;;;19.70;99.90;;;;;;5066421;28;20036;-71
2022/10/04 11:29:30;;;;;;;4.00;3.38;;;19.70;99.90;;;;;;5064388;28;20396;-70
2022/10/04 11:31:59;;;;;;;5.30;3.60;;;19.70;99.90;;;;;;5072856;28;20033;-71
2022/10/04 11:34:24;;;;;;;8.65;3.70;;;19.80;99.90;;;;;;5064990;28;20028;-70
2022/10/04 11:37:25;;;;;;;10.80;3.97;;;19.80;99.90;;;;;;5067330;28;20079;-70
2022/10/04 11:39:51;;;;;;;9.57;4.22;;;20.00;99.90;;;;;;5067074;28;20363;-71
2022/10/04 11:42:41;;;;;;;5.90;3.45;;;20.20;99.90;;;;;;5069277;28;20039;-71
2022/10/04 11:45:35;;;;;;;7.07;3.70;;;20.20;99.90;;;;;;5071101;28;20100;-71
2022/10/04 11:48:19;;;;;;;7.93;4.07;;;19.90;99.90;;;;;;5072975;28;20033;-70
2022/10/04 11:51:09;;;;;;;7.93;3.70;;;20.00;99.90;;;;;;5066756;28;20504;-71
2022/10/04 11:54:02;;;;;;;7.78;3.78;;;19.90;99.90;;;;;;5060299;28;20074;-70
2022/10/04 11:56:40;;;;;;;5.63;3.63;;;20.10;99.90;;;;;;5061432;28;20560;-71
2022/10/04 11:59:24;;;;;;;4.97;3.67;;;20.20;99.90;;;;;;5062840;28;20032;-70
2022/10/04 12:02:21;;;;;;;10.15;4.15;;;20.20;99.90;;;;;;5065308;28;20039;-70
2022/10/04 12:04:48;;;;;;;7.78;4.25;;;20.10;99.90;;;;;;5059159;28;20052;-70
2022/10/04 12:07:40;;;;;;;6.38;4.00;;;19.90;99.90;;;;;;5065767;28;20427;-70
2022/10/04 12:10:23;;;;;;;6.32;4.03;;;20.00;99.90;;;;;;5061000;28;20102;-71
2022/10/04 12:12:51;;;;;;;;;;;20.10;99.90;;;;;;5067888;28;20013;-71
2022/10/04 12:15:38;;;;;;;7.38;3.53;;;20.20;99.90;;;;;;5061772;28;19913;-71
2022/10/04 12:18:34;;;;;;;6.78;3.25;;;20.20;99.90;;;;;;5064287;28;20063;-71
2022/10/04 12:21:18;;;;;;;5.25;3.38;;;20.00;99.90;;;;;;5063599;28;20021;-70
2022/10/04 12:23:49;;;;;;;9.57;3.30;;;19.90;99.90;;;;;;5062658;28;20100;-71
2022/10/04 12:26:38;;;;;;;6.97;3.80;;;19.60;99.90;;;;;;5060662;28;20082;-71
2022/10/04 12:29:54;;;;;;;5.45;3.60;;;19.70;99.90;;;;;;5067472;28;20036;-71
2022/10/04 12:32:39;;;;;;;9.55;3.47;;;19.80;99.90;;;;;;5069592;28;20110;-71
2022/10/04 12:35:13;;;;;;;7.75;3.95;;;19.90;99.90;;;;;;5065065;28;20033;-71
2022/10/04 12:38:19;;;;;;;9.15;3.58;;;19.90;99.90;;;;;;5061416;28;20032;-71
2022/10/04 12:41:23;;;;;;;7.15;3.70;;;19.80;99.90;;;;;;5066234;28;20063;-71
2022/10/04 12:43:51;;;;;;;4.32;3.55;;;19.90;99.90;;;;;;5066217;28;20477;-71
2022/10/04 12:46:48;;;;;;;6.93;3.38;;;20.00;99.90;;;;;;5076020;28;20042;-70
2022/10/04 12:49:20;;;;;;;4.32;3.38;;;20.00;99.90;;;;;;5065097;28;20075;-70
2022/10/04 12:51:58;;;;;;;7.07;3.20;;;20.10;99.90;;;;;;5064176;28;20040;-70
2022/10/04 12:54:36;;;;;;;7.13;4.20;;;20.00;99.90;;;;;;5066647;28;20081;-70
2022/10/04 12:57:16;;;;;;;8.60;4.10;;;19.90;99.90;;;;;;5064193;28;20048;-71
2022/10/04 12:59:45;;;;;;;9.23;3.92;;;19.90;99.90;;;;;;5060191;28;20441;-71
2022/10/04 13:02:11;;;;;;;7.28;3.78;;;19.90;99.90;;;;;;5060621;28;20046;-72
2022/10/04 13:05:01;;;;;;;10.10;3.85;;;20.00;99.90;;;;;;5065236;28;20028;-70
2022/10/04 13:07:45;;;;;;;6.75;3.22;;;20.00;99.90;;;;;;5061381;28;20042;-71
2022/10/04 13:10:27;;;;;;;8.20;3.72;;;20.00;99.90;;;;;;5066776;28;20024;-71
2022/10/04 13:12:58;;;;;;;7.90;4.05;;;20.10;99.90;;;;;;5062760;28;20165;-71
2022/10/04 13:15:28;;;;;;;8.48;3.53;;;20.10;99.90;;;;;;5067431;28;20424;-70
2022/10/04 13:17:59;;;;;;;6.95;3.38;;;20.00;99.90;;;;;;5060585;28;20124;-71
2022/10/04 13:20:31;;;;;;;8.40;4.05;;;20.00;99.90;;;;;;5060291;28;20434;-71
2022/10/04 13:23:27;;;;;;;9.60;3.43;;;20.00;99.90;;;;;;5065896;28;20051;-71
2022/10/04 13:26:16;;;;;;;6.28;3.50;;;19.90;99.90;;;;;;5066408;28;20789;-70
2022/10/04 13:29:16;;;;;;;9.02;3.80;;;19.70;99.90;;;;;;5064558;28;20037;-70
2022/10/04 13:32:00;;;;;;;10.13;3.22;;;19.70;99.90;;;;;;5075437;28;20055;-70
2022/10/04 13:34:43;;;;;;;8.50;3.35;;;19.90;99.90;;;;;;5064519;28;20032;-71
2022/10/04 13:37:08;;;;;;;;;;;19.90;99.90;;;;;;5070773;28;20028;-70
2022/10/04 13:39:52;;;;;;;5.18;3.80;;;19.70;99.90;;;;;;5068702;28;20304;-70
2022/10/04 13:42:30;;;;;;;5.93;3.60;;;19.70;99.90;;;;;;5070108;28;20028;-70
2022/10/04 13:45:22;;;;;;;5.35;3.20;;;19.60;99.90;;;;;;5068906;28;20385;-71
2022/10/04 13:48:27;;;;;;;11.07;4.05;;;19.60;99.90;;;;;;5071252;28;20108;-70
2022/10/04 13:51:17;;;;;;;6.57;4.30;;;19.60;99.90;;;;;;5072812;28;20067;-71
2022/10/04 13:57:13;;;;;;;6.05;3.75;;;19.50;99.90;;;;;;5070377;28;20036;-71
2022/10/04 14:00:13;;;;;;;8.98;4.10;;;19.50;99.90;;;;;;5057291;28;20044;-70